MCY weather

Sunshine Coast Airport
Maroochydore, Queensland, Australia

Public forecast

Using degrees Celsius for public forecast. Weather courtesy of forecast.io.

Closest aviation weather report (METAR) to Sunshine Coast Airport

Closest report is Brisbane International Airport, 46.9 nm (86.9 km) S. Retrieved 2020/06/05 15:30 UTC (18 minutes ago):

YBBN 051530Z 23007KT 9999 FEW040 12/11 Q1024 NOSIG

Closest aviation forecast (TAF) to Sunshine Coast Airport

Closest forecast is Brisbane International Airport, 46.9 nm (86.9 km) S. Retrieved 2020/06/05 12:00 UTC (4 hours ago):

TAF YBBN 051058Z 0512/0618 20006KT 9999 FEW030 BECMG 0602/0603 08009KT 9999 FEW040 FM060900 20006KT 9999 FEW030